Time;durP1;ratioP1;P1;durP2;ratioP2;P2;SDS_P1;SDS_P2;PMS_P1;PMS_P2;Temp;Humidity;BMP_temperature;BMP_pressure;BME280_temperature;BME280_humidity;BME280_pressure;Samples;Min_cycle;Max_cycle;Signal;HPM_P1;HPM_P2
2022/11/15 00:01:16;;;;;;;6.28;3.83;;;20.40;42.60;;;;;;5049119;28;20071;-57
2022/11/15 00:04:01;;;;;;;5.80;4.03;;;20.40;42.60;;;;;;5050378;28;20044;-57
2022/11/15 00:06:45;;;;;;;4.70;3.63;;;20.40;42.70;;;;;;5049509;28;20391;-59
2022/11/15 00:09:29;;;;;;;5.32;3.80;;;20.40;42.70;;;;;;5047514;28;20051;-56
2022/11/15 00:12:14;;;;;;;6.20;3.90;;;20.40;43.40;;;;;;5050004;28;20048;-58
2022/11/15 00:14:58;;;;;;;5.63;4.10;;;20.40;42.80;;;;;;5048695;28;20128;-61
2022/11/15 00:17:42;;;;;;;4.60;3.30;;;20.40;42.80;;;;;;5045514;28;20098;-58
2022/11/15 00:20:26;;;;;;;7.03;4.20;;;20.40;42.90;;;;;;5045107;28;20060;-60
2022/11/15 00:23:11;;;;;;;5.43;3.90;;;20.40;42.90;;;;;;5049054;28;20086;-58
2022/11/15 00:25:59;;;;;;;6.15;4.38;;;20.40;42.90;;;;;;5047403;28;20470;-57
2022/11/15 00:28:44;;;;;;;5.10;3.58;;;20.40;42.90;;;;;;5045752;28;20048;-58
2022/11/15 00:31:28;;;;;;;5.38;3.55;;;20.40;43.00;;;;;;5048107;28;20098;-57
2022/11/15 00:34:12;;;;;;;6.82;3.90;;;20.30;42.90;;;;;;5048634;28;20048;-58
2022/11/15 00:36:57;;;;;;;5.55;3.88;;;20.30;43.00;;;;;;5047785;28;20055;-57
2022/11/15 00:39:44;;;;;;;6.32;3.72;;;20.30;43.00;;;;;;5048807;28;20122;-56
2022/11/15 00:42:28;;;;;;;5.45;3.22;;;20.30;43.10;;;;;;5049834;28;20083;-56
2022/11/15 00:45:13;;;;;;;5.03;3.35;;;20.30;43.10;;;;;;5047583;28;20159;-58
2022/11/15 00:47:57;;;;;;;5.78;4.00;;;20.30;43.10;;;;;;5049048;28;20499;-57
2022/11/15 00:50:41;;;;;;;4.20;2.83;;;20.30;43.40;;;;;;5049454;28;20048;-56
2022/11/15 00:53:25;;;;;;;5.25;3.75;;;20.30;43.20;;;;;;5048924;28;20429;-58
2022/11/15 00:56:10;;;;;;;4.70;3.20;;;20.30;43.30;;;;;;5033206;28;20044;-55
2022/11/15 00:58:54;;;;;;;4.95;3.38;;;20.30;43.30;;;;;;5023177;28;20070;-58
2022/11/15 01:01:38;;;;;;;5.53;3.87;;;20.30;43.30;;;;;;5049824;28;20048;-58
2022/11/15 01:04:23;;;;;;;4.75;3.55;;;20.30;43.30;;;;;;5048392;28;20294;-58
2022/11/15 01:07:07;;;;;;;4.70;3.53;;;20.30;43.40;;;;;;5048380;28;20040;-59
2022/11/15 01:09:51;;;;;;;5.25;3.42;;;20.30;43.40;;;;;;5047600;28;20044;-57
2022/11/15 01:12:36;;;;;;;4.13;3.22;;;20.30;43.50;;;;;;5048888;28;20522;-57
2022/11/15 01:15:20;;;;;;;4.10;3.08;;;20.30;43.50;;;;;;5032961;28;20060;-58
2022/11/15 01:18:04;;;;;;;5.95;3.28;;;20.30;43.60;;;;;;5047177;28;20044;-55
2022/11/15 01:20:49;;;;;;;4.78;3.40;;;20.30;43.60;;;;;;5049083;28;20129;-52
2022/11/15 01:23:33;;;;;;;5.30;3.72;;;20.30;43.60;;;;;;5046802;28;20099;-57
2022/11/15 01:26:17;;;;;;;6.25;3.28;;;20.30;43.70;;;;;;5047964;28;20114;-56
2022/11/15 01:29:02;;;;;;;6.15;3.33;;;20.30;43.70;;;;;;5048479;28;20107;-57
2022/11/15 01:31:46;;;;;;;5.15;3.70;;;20.30;43.80;;;;;;5048021;28;20071;-56
2022/11/15 01:34:31;;;;;;;5.10;3.60;;;20.30;43.80;;;;;;5043985;28;20047;-57
2022/11/15 01:37:15;;;;;;;4.28;3.15;;;20.20;43.80;;;;;;5049527;28;20470;-55
2022/11/15 01:39:59;;;;;;;4.68;3.20;;;20.30;43.90;;;;;;5046828;28;20060;-54
2022/11/15 01:42:44;;;;;;;7.57;3.25;;;20.30;44.00;;;;;;5047498;28;20040;-57
2022/11/15 01:45:28;;;;;;;5.13;3.30;;;20.20;44.00;;;;;;5048815;28;20052;-56
2022/11/15 01:48:12;;;;;;;4.72;2.88;;;20.20;44.10;;;;;;5047753;28;20138;-58
2022/11/15 01:50:58;;;;;;;3.72;3.33;;;20.30;44.20;;;;;;5047801;28;20135;-54
2022/11/15 01:53:47;;;;;;;6.32;3.65;;;20.20;44.20;;;;;;5048268;28;20047;-58
2022/11/15 01:56:37;;;;;;;4.85;2.90;;;20.30;44.30;;;;;;5048869;28;20118;-58
2022/11/15 01:59:21;;;;;;;5.28;3.28;;;20.20;44.30;;;;;;5045783;28;20102;-62
2022/11/15 02:02:06;;;;;;;3.78;3.05;;;20.20;44.30;;;;;;5048893;28;20047;-58
2022/11/15 02:04:50;;;;;;;4.28;3.38;;;20.30;45.00;;;;;;5029983;28;20035;-57
2022/11/15 02:07:36;;;;;;;4.28;3.15;;;20.20;44.40;;;;;;5051771;28;20133;-55
2022/11/15 02:10:23;;;;;;;5.80;3.28;;;20.30;44.50;;;;;;5034513;28;20059;-56
2022/11/15 02:13:07;;;;;;;4.68;3.30;;;20.20;44.40;;;;;;5052994;28;20068;-59
2022/11/15 02:16:33;;;;;;;4.55;2.95;;;20.20;44.50;;;;;;5049120;28;20359;-57
2022/11/15 02:19:20;;;;;;;4.28;3.40;;;20.20;44.60;;;;;;5047304;28;20586;-60
2022/11/15 02:22:44;;;;;;;3.50;2.92;;;20.20;44.60;;;;;;5050153;28;20360;-56
2022/11/15 02:25:54;;;;;;;4.10;2.97;;;20.20;44.70;;;;;;4973857;28;20464;-57
2022/11/15 02:28:47;;;;;;;4.47;3.20;;;20.20;44.70;;;;;;5048694;28;20032;-57
2022/11/15 02:32:03;;;;;;;4.70;2.80;;;20.20;44.80;;;;;;5049000;28;20148;-58
2022/11/15 02:35:07;;;;;;;4.20;2.85;;;20.20;44.80;;;;;;5049541;28;20056;-56
2022/11/15 02:37:55;;;;;;;3.85;2.90;;;20.20;44.80;;;;;;5052002;28;20570;-55
2022/11/15 02:40:57;;;;;;;4.15;2.90;;;20.20;44.90;;;;;;5047072;28;20059;-56
2022/11/15 02:43:57;;;;;;;4.57;3.10;;;20.20;45.00;;;;;;5049059;28;20178;-59
2022/11/15 02:49:56;;;;;;;4.95;3.22;;;20.20;45.10;;;;;;5050024;28;20047;-58
2022/11/15 02:52:44;;;;;;;4.43;2.95;;;20.20;45.10;;;;;;5051552;28;20044;-59
2022/11/15 02:55:32;;;;;;;3.45;2.65;;;20.10;45.10;;;;;;5049697;28;20080;-59
2022/11/15 02:58:28;;;;;;;5.22;2.80;;;20.20;45.20;;;;;;5048858;28;20036;-59
2022/11/15 03:01:37;;;;;;;3.65;2.97;;;20.20;45.30;;;;;;5048202;28;20036;-58
2022/11/15 03:04:27;;;;;;;3.63;2.90;;;20.10;45.20;;;;;;5051264;28;20451;-57
2022/11/15 03:07:24;;;;;;;3.72;2.97;;;20.10;45.20;;;;;;5049926;28;20393;-58
2022/11/15 03:10:32;;;;;;;3.92;2.88;;;20.20;45.40;;;;;;5051405;28;20408;-56
2022/11/15 03:14:04;;;;;;;3.65;3.03;;;20.10;45.40;;;;;;5050775;28;20485;-58
2022/11/15 03:17:01;;;;;;;4.05;2.70;;;20.10;45.40;;;;;;4986834;28;20106;-57
2022/11/15 03:19:50;;;;;;;5.78;2.78;;;20.10;45.50;;;;;;5033064;28;20132;-55
2022/11/15 03:22:39;;;;;;;3.80;2.83;;;20.10;45.50;;;;;;5049752;28;20051;-55
2022/11/15 03:25:25;;;;;;;3.35;2.75;;;20.10;45.60;;;;;;5046746;28;20122;-57
2022/11/15 03:28:13;;;;;;;4.80;3.00;;;20.10;45.70;;;;;;5050605;28;20122;-55
2022/11/15 03:31:00;;;;;;;2.97;2.25;;;20.10;45.80;;;;;;5047734;28;20110;-57
2022/11/15 03:33:45;;;;;;;3.15;2.80;;;20.10;45.80;;;;;;5051100;28;20538;-59
2022/11/15 03:36:31;;;;;;;4.35;2.88;;;20.10;45.80;;;;;;5048222;28;20097;-58
2022/11/15 03:39:16;;;;;;;3.83;2.80;;;20.10;45.80;;;;;;5051006;28;20140;-58
2022/11/15 03:42:29;;;;;;;3.90;2.78;;;20.10;45.80;;;;;;5049921;28;20052;-58
2022/11/15 03:45:26;;;;;;;3.75;2.60;;;20.10;45.80;;;;;;5048930;28;20052;-57
2022/11/15 03:48:16;;;;;;;3.78;2.70;;;20.10;46.00;;;;;;5045755;28;20036;-56
2022/11/15 03:51:00;;;;;;;3.67;2.80;;;20.10;46.10;;;;;;5048605;28;20090;-54
2022/11/15 03:53:45;;;;;;;3.58;2.80;;;20.10;46.20;;;;;;5050612;28;20044;-56
2022/11/15 03:56:30;;;;;;;3.38;2.35;;;20.10;46.20;;;;;;5048301;28;20107;-58
2022/11/15 03:59:14;;;;;;;3.70;2.75;;;20.10;46.30;;;;;;5049546;28;20056;-60
2022/11/15 04:01:58;;;;;;;3.95;2.85;;;20.10;46.30;;;;;;5049051;28;20543;-58
2022/11/15 04:04:42;;;;;;;2.90;2.60;;;20.10;46.30;;;;;;5049383;28;20363;-56
2022/11/15 04:07:26;;;;;;;3.28;2.53;;;20.10;46.40;;;;;;5046117;28;20075;-56
2022/11/15 04:10:11;;;;;;;4.50;2.88;;;20.10;46.50;;;;;;5047452;28;20106;-59
2022/11/15 04:12:56;;;;;;;3.97;2.65;;;20.10;46.60;;;;;;5047486;28;20475;-60
2022/11/15 04:15:40;;;;;;;4.07;2.80;;;20.10;46.60;;;;;;5047545;28;20422;-54
2022/11/15 04:18:25;;;;;;;3.53;2.53;;;20.10;46.70;;;;;;5047360;28;20094;-58
2022/11/15 04:24:13;;;;;;;3.38;2.60;;;20.10;46.80;;;;;;5049570;28;20079;-58
2022/11/15 04:26:57;;;;;;;4.63;2.97;;;20.10;46.90;;;;;;5048571;28;20098;-55
2022/11/15 04:29:41;;;;;;;3.58;2.65;;;20.10;47.00;;;;;;5046892;28;20487;-59
2022/11/15 04:32:25;;;;;;;2.85;2.40;;;20.10;47.10;;;;;;5049120;28;20040;-59
2022/11/15 04:35:09;;;;;;;3.17;2.45;;;20.10;47.20;;;;;;5050288;28;20106;-58
2022/11/15 04:37:55;;;;;;;4.10;2.70;;;20.10;47.20;;;;;;5049886;28;20059;-57
2022/11/15 04:40:40;;;;;;;4.20;2.97;;;20.10;47.30;;;;;;5047663;28;20051;-58
2022/11/15 04:43:24;;;;;;;4.57;2.80;;;20.10;47.40;;;;;;5049200;28;20040;-54
2022/11/15 04:46:08;;;;;;;3.25;2.65;;;20.10;47.50;;;;;;5047708;28;20047;-60
2022/11/15 04:48:53;;;;;;;4.22;2.65;;;20.10;47.50;;;;;;5046748;28;20075;-56
2022/11/15 04:51:38;;;;;;;3.88;2.60;;;20.10;47.60;;;;;;5047100;28;20095;-56
2022/11/15 04:54:22;;;;;;;2.83;2.15;;;20.10;47.60;;;;;;5047151;28;20094;-55
2022/11/15 04:57:06;;;;;;;3.45;2.58;;;20.10;47.70;;;;;;5048734;28;20036;-55
2022/11/15 04:59:50;;;;;;;2.95;2.38;;;20.10;47.70;;;;;;5046308;28;20121;-55
2022/11/15 05:05:38;;;;;;;4.55;2.70;;;20.10;47.80;;;;;;5047735;28;20047;-56
2022/11/15 05:08:22;;;;;;;4.40;2.50;;;20.10;48.50;;;;;;5046876;28;20048;-56
2022/11/15 05:11:06;;;;;;;3.90;2.65;;;20.10;47.90;;;;;;5047845;28;20048;-55
2022/11/15 05:13:51;;;;;;;2.88;2.22;;;20.10;47.90;;;;;;5048659;28;20040;-56
2022/11/15 05:16:35;;;;;;;3.42;2.45;;;20.10;48.00;;;;;;5046869;28;20103;-54
2022/11/15 05:19:20;;;;;;;5.25;2.47;;;20.10;48.00;;;;;;5047068;28;20083;-56
2022/11/15 05:22:04;;;;;;;3.40;2.55;;;20.00;48.00;;;;;;5048961;28;20103;-54
2022/11/15 05:24:49;;;;;;;4.00;2.17;;;20.10;48.00;;;;;;5047712;28;20032;-57
2022/11/15 05:27:34;;;;;;;4.88;2.53;;;20.00;48.00;;;;;;5047201;28;20036;-55
2022/11/15 05:30:19;;;;;;;3.30;2.67;;;20.00;48.00;;;;;;5046492;28;20115;-53
2022/11/15 05:33:03;;;;;;;3.85;2.78;;;20.00;48.10;;;;;;5025904;28;20048;-52
2022/11/15 05:35:57;;;;;;;3.15;2.67;;;20.00;48.10;;;;;;5048268;28;20036;-58
2022/11/15 05:38:42;;;;;;;4.72;2.67;;;20.00;48.10;;;;;;5048588;28;20043;-53
2022/11/15 05:41:38;;;;;;;3.10;2.22;;;20.00;48.10;;;;;;5051293;28;20368;-57
2022/11/15 05:44:25;;;;;;;4.82;2.63;;;20.00;48.10;;;;;;5050168;28;20064;-56
2022/11/15 05:47:14;;;;;;;3.80;2.53;;;20.00;48.20;;;;;;5050895;28;20376;-56
2022/11/15 05:49:58;;;;;;;3.30;2.45;;;20.00;48.20;;;;;;5050769;28;20099;-51
2022/11/15 05:52:44;;;;;;;4.47;2.90;;;20.00;48.30;;;;;;5048199;28;20058;-57
2022/11/15 05:55:28;;;;;;;3.63;2.60;;;20.00;48.30;;;;;;5036600;28;20376;-55
2022/11/15 05:58:12;;;;;;;3.80;2.63;;;20.00;48.40;;;;;;5050997;28;20044;-57
2022/11/15 06:00:57;;;;;;;3.85;2.60;;;20.00;48.40;;;;;;5048075;28;20079;-57
2022/11/15 06:03:41;;;;;;;3.75;2.72;;;20.00;48.50;;;;;;5051673;28;20075;-59
2022/11/15 06:06:28;;;;;;;3.55;2.30;;;20.10;48.50;;;;;;5051462;28;20039;-58
2022/11/15 06:09:12;;;;;;;4.13;2.47;;;20.00;48.50;;;;;;5048437;28;20570;-56
2022/11/15 06:11:57;;;;;;;4.30;2.50;;;20.00;49.10;;;;;;5048940;28;20478;-59
2022/11/15 06:14:41;;;;;;;5.22;2.33;;;20.00;48.50;;;;;;5052326;28;20126;-57
2022/11/15 06:17:25;;;;;;;2.85;2.30;;;20.00;48.50;;;;;;5047904;28;20435;-58
2022/11/15 06:20:10;;;;;;;6.00;3.50;;;20.00;48.60;;;;;;5051043;28;20063;-57
2022/11/15 06:23:04;;;;;;;4.15;2.83;;;20.00;48.60;;;;;;5051537;28;20047;-57
2022/11/15 06:25:48;;;;;;;4.20;2.30;;;20.00;48.60;;;;;;5048916;28;20040;-56
2022/11/15 06:28:32;;;;;;;3.75;2.47;;;20.00;48.70;;;;;;5049976;28;20124;-56
2022/11/15 06:31:17;;;;;;;3.88;2.45;;;20.00;48.80;;;;;;5049065;28;20040;-59
2022/11/15 06:34:01;;;;;;;4.22;2.67;;;20.00;48.80;;;;;;5050845;28;20035;-58
2022/11/15 06:36:45;;;;;;;3.15;2.20;;;20.00;48.80;;;;;;5049684;28;20103;-57
2022/11/15 06:39:30;;;;;;;3.50;2.72;;;20.00;48.90;;;;;;5049490;28;20084;-58
2022/11/15 06:42:17;;;;;;;4.22;2.50;;;20.00;48.90;;;;;;5051656;28;20043;-57
2022/11/15 06:45:01;;;;;;;3.13;2.38;;;20.00;48.90;;;;;;5035635;28;20043;-58
2022/11/15 06:47:47;;;;;;;4.45;2.58;;;20.00;48.90;;;;;;5047319;28;20107;-56
2022/11/15 06:50:30;;;;;;;;;;;20.00;49.00;;;;;;5050088;28;20036;-57
2022/11/15 06:53:15;;;;;;;3.40;2.80;;;20.00;49.00;;;;;;5050105;28;19920;-58
2022/11/15 06:56:04;;;;;;;3.75;2.60;;;20.00;49.00;;;;;;5050704;28;20103;-57
2022/11/15 06:58:48;;;;;;;3.53;2.88;;;20.00;49.10;;;;;;5042477;28;20086;-58
2022/11/15 07:01:33;;;;;;;4.50;2.67;;;20.00;49.10;;;;;;5047337;28;20103;-57
2022/11/15 07:04:17;;;;;;;3.78;2.30;;;20.00;49.20;;;;;;5026688;28;20174;-58
2022/11/15 07:07:01;;;;;;;3.70;2.38;;;20.00;49.20;;;;;;5049924;28;20098;-58
2022/11/15 07:09:45;;;;;;;4.77;2.33;;;20.00;49.40;;;;;;5048067;28;20407;-59
2022/11/15 07:12:30;;;;;;;4.07;2.33;;;20.00;49.40;;;;;;5049432;28;20298;-59
2022/11/15 07:15:15;;;;;;;3.67;2.75;;;20.00;49.40;;;;;;5051119;28;20044;-58
2022/11/15 07:18:02;;;;;;;2.70;2.30;;;20.00;49.50;;;;;;5045853;28;20506;-56
2022/11/15 07:20:47;;;;;;;3.40;2.47;;;20.00;49.50;;;;;;5050531;28;20032;-59
2022/11/15 07:23:31;;;;;;;4.47;2.67;;;20.00;49.50;;;;;;5051387;28;20248;-57
2022/11/15 07:26:15;;;;;;;5.13;3.33;;;20.00;49.60;;;;;;5046608;28;20040;-58
2022/11/15 07:29:00;;;;;;;3.50;2.60;;;20.00;49.60;;;;;;5047479;28;20094;-58
2022/11/15 07:31:44;;;;;;;3.47;2.67;;;20.00;49.70;;;;;;5050063;28;20107;-55
2022/11/15 07:34:29;;;;;;;4.90;2.67;;;20.00;49.70;;;;;;5046318;28;20059;-59
2022/11/15 07:37:13;;;;;;;3.05;2.38;;;20.00;49.80;;;;;;5047157;28;20075;-58
2022/11/15 07:39:58;;;;;;;4.25;2.80;;;20.00;49.80;;;;;;5045703;28;20106;-57
2022/11/15 07:42:55;;;;;;;4.35;2.67;;;20.00;49.90;;;;;;5038912;28;20036;-54
2022/11/15 07:45:45;;;;;;;3.97;2.30;;;20.00;49.90;;;;;;5041768;28;20139;-58
2022/11/15 07:48:30;;;;;;;6.03;2.50;;;20.00;50.00;;;;;;5048332;28;20167;-55
2022/11/15 07:51:16;;;;;;;5.00;2.40;;;20.00;50.00;;;;;;5049033;28;20102;-58
2022/11/15 07:54:00;;;;;;;5.53;2.40;;;20.00;50.10;;;;;;5044675;28;20098;-59
2022/11/15 07:56:45;;;;;;;6.50;2.72;;;20.00;50.20;;;;;;5044741;28;20079;-59
2022/11/15 07:59:29;;;;;;;3.13;2.20;;;20.00;50.20;;;;;;5031364;28;20132;-59
2022/11/15 08:02:16;;;;;;;4.90;2.55;;;20.00;50.20;;;;;;5049986;28;20166;-57
2022/11/15 08:05:00;;;;;;;5.75;3.17;;;20.00;50.90;;;;;;5033761;28;20056;-58
2022/11/15 08:07:45;;;;;;;3.90;2.22;;;20.00;50.30;;;;;;5038442;28;20094;-59
2022/11/15 08:10:29;;;;;;;6.70;3.13;;;20.00;50.40;;;;;;5046784;28;20505;-58
2022/11/15 08:13:14;;;;;;;6.75;3.10;;;20.00;50.50;;;;;;5040082;28;20353;-58
2022/11/15 08:16:00;;;;;;;8.00;3.30;;;20.00;50.50;;;;;;5043348;28;20566;-57
2022/11/15 08:18:45;;;;;;;7.68;3.58;;;20.00;50.60;;;;;;5046446;28;20151;-55
2022/11/15 08:21:29;;;;;;;;;;;20.00;50.70;;;;;;5049932;28;20086;-56
2022/11/15 08:24:14;;;;;;;6.45;3.30;;;20.00;50.70;;;;;;5028493;28;19919;-58
2022/11/15 08:26:59;;;;;;;7.35;3.20;;;20.00;50.80;;;;;;5049505;28;20036;-58
2022/11/15 08:29:44;;;;;;;8.18;3.10;;;20.00;50.80;;;;;;5044213;28;20048;-58
2022/11/15 08:32:30;;;;;;;9.93;3.80;;;20.10;50.90;;;;;;5052951;28;20103;-57
2022/11/15 08:35:14;;;;;;;7.40;3.60;;;20.00;50.90;;;;;;5045816;28;20094;-60
2022/11/15 08:37:59;;;;;;;;;;;20.10;51.00;;;;;;5050025;28;20182;-59
2022/11/15 08:40:43;;;;;;;6.90;2.72;;;20.10;51.10;;;;;;5047055;28;20358;-57
2022/11/15 08:43:28;;;;;;;6.28;2.92;;;20.10;51.00;;;;;;5031185;28;20044;-58
2022/11/15 08:46:13;;;;;;;5.10;2.80;;;20.10;51.00;;;;;;5045423;28;20044;-54
2022/11/15 08:48:57;;;;;;;7.07;3.65;;;20.10;51.40;;;;;;5060192;28;20135;-58
2022/11/15 08:51:42;;;;;;;7.75;2.90;;;20.10;51.10;;;;;;5044104;28;20031;-59
2022/11/15 08:54:27;;;;;;;6.43;3.22;;;20.10;51.30;;;;;;5045043;28;20036;-58
2022/11/15 08:57:11;;;;;;;4.40;2.78;;;20.10;51.10;;;;;;5041039;28;20044;-58
2022/11/15 08:59:55;;;;;;;5.90;3.05;;;20.10;51.20;;;;;;5038691;28;20517;-58
2022/11/15 09:02:40;;;;;;;5.00;3.00;;;20.10;51.20;;;;;;5048859;28;20102;-56
2022/11/15 09:05:25;;;;;;;5.80;2.92;;;20.10;51.20;;;;;;5039664;28;20040;-55
2022/11/15 09:08:11;;;;;;;5.05;2.75;;;20.10;51.20;;;;;;5041262;28;20051;-60
2022/11/15 09:10:55;;;;;;;5.40;2.70;;;20.10;51.20;;;;;;5034884;28;20052;-59
2022/11/15 09:13:39;;;;;;;4.07;2.28;;;20.10;51.20;;;;;;5039871;28;20170;-60
2022/11/15 09:16:24;;;;;;;4.18;2.30;;;20.10;51.20;;;;;;5052339;28;20052;-59
2022/11/15 09:19:08;;;;;;;3.95;2.22;;;20.10;51.30;;;;;;5048132;28;20063;-59
2022/11/15 09:21:54;;;;;;;5.03;2.28;;;20.00;51.30;;;;;;5049093;28;20072;-58
2022/11/15 09:24:38;;;;;;;4.50;2.55;;;20.10;51.30;;;;;;5051233;28;20087;-59
2022/11/15 09:27:26;;;;;;;5.15;1.90;;;20.10;51.30;;;;;;5052677;28;20126;-61
2022/11/15 09:30:11;;;;;;;4.28;2.20;;;20.10;51.30;;;;;;5052093;28;20047;-58
2022/11/15 09:32:55;;;;;;;3.65;2.05;;;20.10;51.30;;;;;;5051361;28;20128;-58
2022/11/15 09:35:40;;;;;;;4.47;1.98;;;20.10;51.30;;;;;;5049331;28;20061;-58
2022/11/15 09:38:26;;;;;;;5.28;2.20;;;20.10;51.30;;;;;;5048794;28;20674;-57
2022/11/15 09:41:13;;;;;;;5.03;2.20;;;20.10;51.30;;;;;;5050155;28;20079;-61
2022/11/15 09:44:35;;;;;;;5.68;2.03;;;20.00;51.20;;;;;;5036059;28;20466;-51
2022/11/15 09:47:46;;;;;;;3.72;1.98;;;20.10;51.20;;;;;;5048820;28;20076;-51
2022/11/15 09:50:48;;;;;;;6.60;2.42;;;20.10;51.10;;;;;;5030698;28;20021;-57
2022/11/15 09:53:25;;;;;;;4.78;2.00;;;20.10;51.10;;;;;;5049066;28;20029;-55
2022/11/15 09:55:57;;;;;;;2.92;1.65;;;20.10;51.10;;;;;;5049174;28;20021;-55
2022/11/15 09:59:19;;;;;;;5.15;2.03;;;20.10;51.10;;;;;;5047239;28;20343;-53
2022/11/15 10:02:12;;;;;;;3.08;1.83;;;20.10;51.00;;;;;;4956484;29;20039;-53
2022/11/15 10:04:39;;;;;;;5.45;2.10;;;20.10;51.00;;;;;;4949928;29;20039;-59
2022/11/15 10:07:27;;;;;;;7.03;1.85;;;20.10;51.00;;;;;;4996041;28;20112;-59
2022/11/15 10:09:56;;;;;;;3.45;2.00;;;20.10;51.00;;;;;;5046659;28;20053;-56
2022/11/15 10:12:25;;;;;;;2.72;1.75;;;20.10;51.00;;;;;;5049927;28;20097;-59
2022/11/15 10:15:08;;;;;;;2.78;1.63;;;20.10;51.00;;;;;;5046265;28;20036;-59
2022/11/15 10:18:07;;;;;;;4.93;1.45;;;20.10;51.00;;;;;;5049692;28;20414;-58
2022/11/15 10:21:02;;;;;;;3.38;1.60;;;20.10;51.00;;;;;;5043998;28;20049;-60
2022/11/15 10:23:28;;;;;;;2.88;1.58;;;20.10;50.90;;;;;;5044799;28;20033;-59
2022/11/15 10:25:58;;;;;;;3.45;1.42;;;20.20;51.00;;;;;;5036918;28;20036;-58
2022/11/15 10:28:31;;;;;;;2.75;1.52;;;20.20;50.90;;;;;;5049618;28;20103;-60
2022/11/15 10:30:59;;;;;;;3.47;1.85;;;20.20;50.80;;;;;;5020116;28;20033;-61
2022/11/15 10:33:35;;;;;;;;;;;20.20;50.80;;;;;;5030136;28;20352;-56
2022/11/15 10:36:15;;;;;;;4.35;1.73;;;20.20;50.70;;;;;;5050559;28;19908;-57
2022/11/15 10:38:50;;;;;;;9.48;3.70;;;20.20;50.70;;;;;;5050588;28;20922;-59
2022/11/15 10:41:26;;;;;;;10.25;3.22;;;20.20;50.80;;;;;;5046079;28;20049;-58
2022/11/15 10:44:07;;;;;;;12.38;3.55;;;20.20;50.80;;;;;;5049752;28;20029;-58
2022/11/15 10:46:39;;;;;;;9.68;2.95;;;20.20;50.80;;;;;;5031692;28;20426;-58
2022/11/15 10:49:16;;;;;;;9.07;2.65;;;20.30;50.70;;;;;;5051599;28;20430;-56
2022/11/15 10:51:59;;;;;;;12.63;3.50;;;20.30;50.60;;;;;;5049266;28;20063;-58
2022/11/15 10:54:35;;;;;;;7.07;2.47;;;20.30;50.60;;;;;;5050035;28;20104;-54
2022/11/15 10:57:08;;;;;;;7.00;2.35;;;20.30;50.60;;;;;;5049331;28;20025;-59
2022/11/15 10:59:37;;;;;;;7.97;2.20;;;20.30;50.70;;;;;;5048053;28;20042;-59
2022/11/15 11:02:31;;;;;;;7.03;1.90;;;20.30;50.70;;;;;;5056005;28;20386;-58
2022/11/15 11:04:58;;;;;;;2.65;1.50;;;20.30;50.60;;;;;;5057507;28;20029;-59
2022/11/15 11:07:27;;;;;;;3.53;1.45;;;20.30;50.50;;;;;;5056453;28;20032;-58
2022/11/15 11:10:13;;;;;;;2.90;1.45;;;20.30;50.20;;;;;;5056237;28;20456;-56
2022/11/15 11:12:39;;;;;;;6.05;1.50;;;20.30;49.90;;;;;;5032133;28;20049;-58
2022/11/15 11:15:12;;;;;;;5.47;1.70;;;20.40;49.80;;;;;;5039155;28;20033;-59
2022/11/15 11:17:53;;;;;;;4.05;1.17;;;20.40;49.70;;;;;;5056642;28;20041;-56
2022/11/15 11:20:34;;;;;;;4.00;1.30;;;20.40;49.40;;;;;;5038599;28;20056;-60
2022/11/15 11:23:34;;;;;;;3.55;1.67;;;20.40;49.20;;;;;;5056524;28;20048;-57
2022/11/15 11:26:34;;;;;;;4.32;1.30;;;20.40;49.10;;;;;;5038327;28;20051;-59
2022/11/15 11:29:38;;;;;;;3.03;1.08;;;20.40;48.90;;;;;;5056970;28;20037;-57
2022/11/15 11:32:23;;;;;;;2.37;1.10;;;20.40;48.70;;;;;;4995186;28;20036;-60
2022/11/15 11:35:06;;;;;;;3.75;1.20;;;20.40;48.60;;;;;;5037735;28;20307;-60
2022/11/15 11:37:47;;;;;;;4.32;1.08;;;20.40;48.40;;;;;;5056020;28;20387;-55
2022/11/15 11:40:30;;;;;;;4.07;1.30;;;20.40;48.30;;;;;;5038833;28;20352;-61
2022/11/15 11:43:06;;;;;;;2.60;1.10;;;20.40;48.10;;;;;;5055785;28;20416;-59
2022/11/15 11:45:37;;;;;;;2.45;1.02;;;20.40;47.90;;;;;;5055975;28;20068;-58
2022/11/15 11:48:13;;;;;;;3.25;1.35;;;20.40;47.80;;;;;;5038064;28;20064;-59
2022/11/15 11:50:42;;;;;;;2.67;0.90;;;20.40;47.60;;;;;;5038377;28;20033;-58
2022/11/15 11:53:32;;;;;;;2.78;1.20;;;20.40;48.10;;;;;;5055350;28;20437;-58
2022/11/15 11:56:04;;;;;;;2.53;0.90;;;20.40;47.30;;;;;;5021353;28;20028;-58
2022/11/15 11:58:42;;;;;;;2.50;1.10;;;20.40;47.10;;;;;;5038152;28;20028;-55
2022/11/15 12:01:17;;;;;;;2.88;0.95;;;20.40;47.00;;;;;;5055742;28;20044;-58
2022/11/15 12:04:08;;;;;;;2.60;0.73;;;20.40;47.00;;;;;;5037657;28;20032;-59
2022/11/15 12:06:45;;;;;;;1.25;0.70;;;20.50;46.90;;;;;;5055955;28;20433;-56
2022/11/15 12:09:20;;;;;;;2.00;0.70;;;20.50;47.40;;;;;;5055699;28;20037;-60
2022/11/15 12:12:11;;;;;;;3.53;0.70;;;20.50;46.60;;;;;;5055837;28;20029;-59
2022/11/15 12:14:55;;;;;;;2.65;0.90;;;20.50;46.50;;;;;;5055355;28;20071;-59
2022/11/15 12:17:32;;;;;;;2.15;0.60;;;20.50;46.40;;;;;;5037602;28;20083;-59
2022/11/15 12:20:03;;;;;;;1.92;0.70;;;20.50;46.20;;;;;;5055300;28;20033;-59
2022/11/15 12:22:29;;;;;;;2.28;0.80;;;20.50;46.00;;;;;;5055592;28;20040;-61
2022/11/15 12:25:20;;;;;;;1.60;0.70;;;20.50;46.00;;;;;;5055145;28;20030;-60
2022/11/15 12:27:57;;;;;;;1.83;0.80;;;20.50;45.90;;;;;;5054844;28;20368;-56
2022/11/15 12:30:27;;;;;;;2.85;0.80;;;20.50;45.80;;;;;;5055180;28;20036;-58
2022/11/15 12:33:00;;;;;;;3.15;0.70;;;20.50;45.70;;;;;;5055156;28;20044;-57
2022/11/15 12:35:40;;;;;;;3.53;0.90;;;20.50;45.70;;;;;;5055060;28;20031;-59
2022/11/15 12:38:30;;;;;;;3.17;1.05;;;20.50;45.60;;;;;;5037629;28;20039;-59
2022/11/15 12:41:17;;;;;;;1.67;0.90;;;20.50;45.50;;;;;;5054549;28;20149;-56
2022/11/15 12:43:44;;;;;;;1.52;0.60;;;20.50;45.40;;;;;;5054881;28;20044;-59
2022/11/15 12:46:21;;;;;;;2.22;0.75;;;20.50;45.30;;;;;;5054685;28;20033;-58
2022/11/15 12:48:49;;;;;;;1.30;0.60;;;20.50;45.20;;;;;;5036905;28;20086;-56
2022/11/15 12:51:17;;;;;;;1.98;0.80;;;20.50;45.10;;;;;;5054875;28;20028;-55
2022/11/15 12:53:42;;;;;;;1.92;0.80;;;20.50;45.00;;;;;;5054700;28;20079;-54
2022/11/15 12:56:17;;;;;;;1.52;0.70;;;20.50;44.90;;;;;;5055051;28;20033;-56
2022/11/15 12:58:47;;;;;;;0.98;0.60;;;20.50;44.80;;;;;;5054957;28;20028;-57
2022/11/15 13:01:34;;;;;;;3.13;0.75;;;20.50;44.80;;;;;;5054823;28;20064;-59
2022/11/15 13:04:18;;;;;;;2.17;0.50;;;20.50;44.70;;;;;;5037461;28;20352;-57
2022/11/15 13:06:47;;;;;;;1.50;0.70;;;20.50;44.60;;;;;;5037221;28;20051;-56
2022/11/15 13:09:35;;;;;;;1.38;0.80;;;20.50;44.50;;;;;;5037070;28;20053;-56
2022/11/15 13:12:08;;;;;;;2.10;0.60;;;20.60;44.50;;;;;;5054512;28;20028;-58
2022/11/15 13:14:37;;;;;;;2.73;0.67;;;20.50;44.40;;;;;;5055123;28;20329;-58
2022/11/15 13:17:21;;;;;;;1.20;0.50;;;20.50;44.30;;;;;;5054160;28;20381;-58
2022/11/15 13:19:53;;;;;;;1.00;0.50;;;20.50;44.20;;;;;;5054660;28;20033;-58
2022/11/15 13:25:14;;;;;;;1.75;1.00;;;20.50;44.10;;;;;;5054614;28;20033;-59
2022/11/15 13:27:40;;;;;;;3.67;1.30;;;20.50;44.00;;;;;;5054839;28;20436;-57
2022/11/15 13:30:19;;;;;;;2.28;1.15;;;20.50;43.90;;;;;;5037191;28;20413;-58
2022/11/15 13:32:45;;;;;;;3.13;1.40;;;20.50;43.80;;;;;;5054338;28;20025;-58
2022/11/15 13:35:23;;;;;;;3.28;1.88;;;20.50;43.80;;;;;;5036768;28;20090;-55
2022/11/15 13:37:50;;;;;;;3.20;1.65;;;20.50;43.70;;;;;;5054580;28;20475;-58
2022/11/15 13:40:30;;;;;;;3.47;1.80;;;20.50;43.60;;;;;;5036841;28;20055;-58
2022/11/15 13:42:59;;;;;;;2.75;1.63;;;20.50;43.60;;;;;;5054278;28;20067;-59
2022/11/15 13:45:26;;;;;;;2.45;1.30;;;20.50;43.50;;;;;;5054484;28;20070;-57
2022/11/15 13:47:57;;;;;;;2.78;1.20;;;20.50;43.50;;;;;;5053854;28;20036;-60
2022/11/15 13:50:31;;;;;;;2.45;1.17;;;20.60;43.50;;;;;;5036682;28;20541;-59
2022/11/15 13:53:01;;;;;;;1.85;1.20;;;20.50;43.40;;;;;;5054551;28;20037;-58
2022/11/15 13:55:28;;;;;;;2.40;1.00;;;20.50;43.40;;;;;;5054262;28;20033;-59
2022/11/15 13:58:05;;;;;;;2.03;1.10;;;20.50;43.40;;;;;;5054194;28;20104;-58
2022/11/15 14:00:38;;;;;;;1.88;0.80;;;20.50;43.30;;;;;;5058580;28;20040;-56
2022/11/15 14:03:14;;;;;;;2.38;0.98;;;20.50;43.30;;;;;;5058127;28;20029;-59
2022/11/15 14:05:39;;;;;;;1.90;1.05;;;20.50;44.00;;;;;;5058230;28;20111;-58
2022/11/15 14:08:22;;;;;;;1.25;0.73;;;20.50;43.30;;;;;;5057697;28;20040;-59
2022/11/15 14:10:48;;;;;;;1.52;0.68;;;20.50;44.00;;;;;;5023670;28;20359;-59
2022/11/15 14:13:31;;;;;;;1.60;0.75;;;20.50;43.40;;;;;;5040062;28;20120;-56
2022/11/15 14:16:32;;;;;;;1.33;0.73;;;20.50;43.40;;;;;;5057936;28;20186;-59
2022/11/15 14:18:58;;;;;;;1.10;0.75;;;20.50;43.40;;;;;;5043987;28;20049;-58
2022/11/15 14:21:24;;;;;;;1.75;0.70;;;20.50;43.40;;;;;;5057611;28;20460;-57
2022/11/15 14:23:50;;;;;;;1.27;0.63;;;20.50;43.30;;;;;;5057616;28;20098;-58
2022/11/15 14:26:28;;;;;;;1.35;0.70;;;20.50;43.30;;;;;;5057991;28;20052;-58